Terminal Aerodrome Forecast
Issued by NWS

Home | Current Version | Previous Version | Text Only | Print | Product List | Glossary On
Versions: 1 2 3 4 5 6 7 8 9 10 11 12
000
FTUS45 KRIW 130500
TAFCPR
TAF
KCPR 130522Z 1306/1406 VRB06KT P6SM SKC
     FM130900 22010KT P6SM SKC
     FM131600 03009KT P6SM SKC=

USA.gov is the U.S. government's official web portal to all federal, state and local government web resources and services.